createdAt,value
2017-07-25T00:01:48.588Z,99.90
2017-07-25T00:04:16.885Z,99.90
2017-07-25T00:06:45.140Z,99.90
2017-07-25T00:09:13.444Z,99.90
2017-07-25T00:11:41.709Z,99.90
2017-07-25T00:14:09.984Z,99.90
2017-07-25T00:16:38.280Z,99.90
2017-07-25T00:19:06.570Z,99.90
2017-07-25T00:21:34.831Z,99.90
2017-07-25T00:24:03.107Z,99.90
2017-07-25T00:26:31.375Z,99.90
2017-07-25T00:28:58.905Z,99.90
2017-07-25T00:31:27.200Z,99.90
2017-07-25T00:33:55.494Z,99.90
2017-07-25T00:36:23.762Z,99.90
2017-07-25T00:38:52.051Z,99.90
2017-07-25T00:41:20.332Z,99.90
2017-07-25T00:43:48.603Z,99.90
2017-07-25T00:46:16.136Z,99.90
2017-07-25T00:48:44.405Z,99.90
2017-07-25T00:51:12.701Z,99.90
2017-07-25T00:53:40.996Z,99.90
2017-07-25T00:56:09.309Z,99.90
2017-07-25T00:58:37.576Z,99.90
2017-07-25T01:01:05.843Z,99.90
2017-07-25T01:03:34.146Z,99.90
2017-07-25T01:06:02.408Z,99.90
2017-07-25T01:08:30.727Z,99.90
2017-07-25T01:10:59.005Z,99.90
2017-07-25T01:13:27.275Z,99.90
2017-07-25T01:15:55.570Z,99.90
2017-07-25T01:18:23.843Z,99.90
2017-07-25T01:20:52.112Z,99.90
2017-07-25T01:23:20.423Z,99.90
2017-07-25T01:25:47.932Z,99.90
2017-07-25T01:28:16.204Z,99.90
2017-07-25T01:30:44.503Z,99.90
2017-07-25T01:33:12.772Z,99.90
2017-07-25T01:35:41.088Z,99.90
2017-07-25T01:38:09.361Z,99.90
2017-07-25T01:40:37.639Z,99.90
2017-07-25T01:43:05.953Z,99.90
2017-07-25T01:45:34.217Z,99.90
2017-07-25T01:48:02.482Z,99.90
2017-07-25T01:50:30.793Z,99.90
2017-07-25T01:52:59.055Z,99.90
2017-07-25T01:55:27.321Z,99.90
2017-07-25T01:57:55.632Z,99.90
2017-07-25T02:00:23.911Z,99.90
2017-07-25T02:02:52.184Z,99.90
2017-07-25T02:05:20.479Z,99.90
2017-07-25T02:07:48.766Z,99.90
2017-07-25T02:10:17.059Z,99.90
2017-07-25T02:12:45.318Z,99.90
2017-07-25T02:15:13.601Z,99.90
2017-07-25T02:17:41.875Z,99.90
2017-07-25T02:20:10.132Z,99.90
2017-07-25T02:22:38.407Z,99.90
2017-07-25T02:25:06.664Z,99.90
2017-07-25T02:27:34.950Z,99.90
2017-07-25T02:30:03.226Z,99.90
2017-07-25T02:32:31.507Z,99.90
2017-07-25T02:34:59.801Z,99.90
2017-07-25T02:37:28.095Z,99.90
2017-07-25T02:39:56.383Z,99.90
2017-07-25T02:42:24.645Z,99.90
2017-07-25T02:44:52.938Z,99.90
2017-07-25T02:47:21.209Z,99.90
2017-07-25T02:49:49.491Z,99.90
2017-07-25T02:52:17.798Z,99.90
2017-07-25T02:54:46.054Z,99.90
2017-07-25T02:57:14.313Z,99.90
2017-07-25T02:59:42.622Z,99.90
2017-07-25T03:02:10.874Z,99.90
2017-07-25T03:04:39.133Z,99.90
2017-07-25T03:07:07.443Z,99.90
2017-07-25T03:09:34.935Z,99.90
2017-07-25T03:12:03.243Z,99.90
2017-07-25T03:14:31.522Z,99.90
2017-07-25T03:16:59.784Z,99.90
2017-07-25T03:19:28.082Z,99.90
2017-07-25T03:21:56.356Z,99.90
2017-07-25T03:24:24.611Z,99.90
2017-07-25T03:26:52.928Z,99.90
2017-07-25T03:29:21.196Z,99.90
2017-07-25T03:31:49.507Z,99.90
2017-07-25T03:34:17.762Z,99.90
2017-07-25T03:36:46.027Z,99.90
2017-07-25T03:39:14.325Z,99.90
2017-07-25T03:41:42.579Z,99.90
2017-07-25T03:44:10.872Z,99.90
2017-07-25T03:46:39.132Z,99.90
2017-07-25T03:49:07.397Z,99.90
2017-07-25T03:51:35.691Z,99.90
2017-07-25T03:54:08.870Z,99.90
2017-07-25T03:56:37.164Z,99.90
2017-07-25T03:59:05.471Z,99.90
2017-07-25T04:01:33.736Z,99.90
2017-07-25T04:04:01.995Z,99.90
2017-07-25T04:06:30.299Z,99.90
2017-07-25T04:08:58.560Z,99.90
2017-07-25T04:11:26.824Z,99.90
2017-07-25T04:13:55.117Z,99.90
2017-07-25T04:16:23.375Z,99.90
2017-07-25T04:18:51.673Z,99.90
2017-07-25T04:21:19.949Z,99.90
2017-07-25T04:23:48.211Z,99.90
2017-07-25T04:26:16.499Z,99.90
2017-07-25T04:28:44.757Z,99.90
2017-07-25T04:31:13.055Z,99.90
2017-07-25T04:33:41.339Z,99.90
2017-07-25T04:36:09.601Z,99.90
2017-07-25T04:38:37.908Z,99.90
2017-07-25T04:41:06.163Z,99.90
2017-07-25T04:43:34.430Z,99.90
2017-07-25T04:46:02.749Z,99.90
2017-07-25T04:48:31.005Z,99.90
2017-07-25T04:50:59.290Z,99.90
2017-07-25T04:53:27.590Z,99.90
2017-07-25T04:55:55.859Z,99.90
2017-07-25T04:58:24.148Z,99.90
2017-07-25T05:00:52.412Z,99.90
2017-07-25T05:03:20.714Z,99.90
2017-07-25T05:05:48.988Z,99.90
2017-07-25T05:08:17.249Z,99.90
2017-07-25T05:10:45.562Z,99.90
2017-07-25T05:13:13.829Z,99.90
2017-07-25T05:15:42.092Z,99.90
2017-07-25T05:18:10.381Z,99.90
2017-07-25T05:20:38.689Z,99.90
2017-07-25T05:23:06.953Z,99.90
2017-07-25T05:25:35.247Z,99.90
2017-07-25T05:28:03.502Z,99.90
2017-07-25T05:30:31.792Z,99.90
2017-07-25T05:33:00.081Z,99.90
2017-07-25T05:35:28.389Z,99.90
2017-07-25T05:37:56.640Z,99.90
2017-07-25T05:40:24.892Z,99.90
2017-07-25T05:42:53.190Z,99.90
2017-07-25T05:45:21.454Z,99.90
2017-07-25T05:47:49.719Z,99.90
2017-07-25T05:50:18.144Z,99.90
2017-07-25T05:52:46.400Z,99.90
2017-07-25T05:55:14.687Z,99.90
2017-07-25T05:57:43.001Z,99.90
2017-07-25T06:00:11.278Z,99.90
2017-07-25T06:02:39.552Z,99.90
2017-07-25T06:05:07.859Z,99.90
2017-07-25T06:07:36.119Z,99.90
2017-07-25T06:10:04.392Z,99.90
2017-07-25T06:12:32.694Z,99.90
2017-07-25T06:15:00.956Z,99.90
2017-07-25T06:17:29.292Z,99.90
2017-07-25T06:19:57.613Z,99.90
2017-07-25T06:22:25.993Z,99.90
2017-07-25T06:24:54.269Z,99.90
2017-07-25T06:27:22.561Z,99.90
2017-07-25T06:29:50.832Z,99.90
2017-07-25T06:32:19.151Z,99.90
2017-07-25T06:34:47.404Z,99.90
2017-07-25T06:37:15.673Z,99.90
2017-07-25T06:39:43.204Z,99.90
2017-07-25T06:42:11.470Z,99.90
2017-07-25T06:44:39.770Z,99.90
2017-07-25T06:47:08.081Z,99.90
2017-07-25T06:49:36.343Z,99.90
2017-07-25T06:52:04.604Z,99.90
2017-07-25T06:54:33.829Z,99.90
2017-07-25T06:57:02.096Z,99.90
2017-07-25T06:59:30.412Z,99.90
2017-07-25T07:01:58.678Z,99.90
2017-07-25T07:04:26.947Z,99.90
2017-07-25T07:06:55.242Z,99.90
2017-07-25T07:09:23.499Z,99.90
2017-07-25T07:11:51.796Z,99.90
2017-07-25T07:14:20.050Z,99.90
2017-07-25T07:16:48.351Z,99.90
2017-07-25T07:19:16.606Z,99.90
2017-07-25T07:21:44.876Z,99.90
2017-07-25T07:24:13.164Z,99.90
2017-07-25T07:26:41.435Z,99.90
2017-07-25T07:29:09.744Z,99.90
2017-07-25T07:31:38.004Z,99.90
2017-07-25T07:34:05.513Z,99.90
2017-07-25T07:36:33.812Z,99.90
2017-07-25T07:39:02.068Z,99.90
2017-07-25T07:41:30.349Z,99.90
2017-07-25T07:43:58.644Z,99.90
2017-07-25T07:46:26.910Z,99.90
2017-07-25T07:48:57.602Z,99.90
2017-07-25T07:51:25.886Z,99.90
2017-07-25T07:53:54.164Z,99.90
2017-07-25T07:56:21.712Z,99.90
2017-07-25T07:58:49.976Z,99.90
2017-07-25T08:01:17.463Z,99.90
2017-07-25T08:03:45.758Z,99.90
2017-07-25T08:06:14.048Z,99.90
2017-07-25T08:08:42.344Z,99.90
2017-07-25T08:11:10.611Z,99.90
2017-07-25T08:13:38.925Z,99.90
2017-07-25T08:16:07.196Z,99.90
2017-07-25T08:18:35.464Z,99.90
2017-07-25T08:21:03.755Z,99.90
2017-07-25T08:23:32.062Z,99.90
2017-07-25T08:26:00.321Z,99.90
2017-07-25T08:28:28.626Z,99.90
2017-07-25T08:30:56.890Z,99.90
2017-07-25T08:33:25.152Z,99.90
2017-07-25T08:35:53.453Z,99.90
2017-07-25T08:38:21.721Z,99.50
2017-07-25T08:40:50.027Z,98.90
2017-07-25T08:43:18.298Z,98.70
2017-07-25T08:45:46.555Z,98.80
2017-07-25T08:48:14.852Z,99.40
2017-07-25T08:50:43.115Z,99.10
2017-07-25T08:53:11.400Z,99.30
2017-07-25T08:55:39.661Z,98.90
2017-07-25T08:58:07.960Z,98.50
2017-07-25T09:00:36.224Z,97.80
2017-07-25T09:03:04.526Z,99.20
2017-07-25T09:05:32.789Z,98.60
2017-07-25T09:08:14.107Z,99.90
2017-07-25T09:10:43.124Z,97.90
2017-07-25T09:13:11.396Z,97.00
2017-07-25T09:15:38.901Z,96.80
2017-07-25T09:18:07.220Z,97.10
2017-07-25T09:20:35.489Z,97.10
2017-07-25T09:23:03.757Z,97.10
2017-07-25T09:25:32.062Z,97.20
2017-07-25T09:28:00.333Z,96.60
2017-07-25T09:30:28.635Z,96.30
2017-07-25T09:32:56.898Z,96.00
2017-07-25T09:35:25.180Z,96.00
2017-07-25T09:37:52.719Z,96.00
2017-07-25T09:40:21.024Z,95.20
2017-07-25T09:42:49.298Z,95.40
2017-07-25T09:45:17.603Z,93.70
2017-07-25T09:47:45.859Z,93.60
2017-07-25T09:50:14.158Z,93.60
2017-07-25T09:52:42.475Z,94.60
2017-07-25T09:55:10.747Z,93.90
2017-07-25T09:57:39.010Z,93.80
2017-07-25T10:00:07.313Z,94.50
2017-07-25T10:02:35.576Z,94.00
2017-07-25T10:05:03.829Z,94.70
2017-07-25T10:07:32.126Z,93.20
2017-07-25T10:10:00.393Z,93.60
2017-07-25T10:12:28.700Z,92.60
2017-07-25T10:14:56.964Z,93.00
2017-07-25T10:17:25.228Z,92.80
2017-07-25T10:19:53.512Z,92.80
2017-07-25T10:22:21.819Z,92.00
2017-07-25T10:24:50.094Z,93.00
2017-07-25T10:27:18.368Z,92.70
2017-07-25T10:29:46.661Z,91.60
2017-07-25T10:32:14.967Z,91.40
2017-07-25T10:34:43.233Z,91.40
2017-07-25T10:37:11.494Z,91.70
2017-07-25T10:39:39.784Z,90.40
2017-07-25T10:42:08.056Z,92.70
2017-07-25T10:44:36.340Z,90.80
2017-07-25T10:47:04.608Z,90.80
2017-07-25T10:49:32.861Z,91.20
2017-07-25T10:52:01.162Z,90.50
2017-07-25T10:54:29.420Z,91.10
2017-07-25T10:56:57.742Z,90.50
2017-07-25T10:59:25.999Z,91.00
2017-07-25T11:01:54.264Z,91.10
2017-07-25T11:04:22.560Z,91.70
2017-07-25T11:06:50.823Z,92.40
2017-07-25T11:09:19.110Z,92.80
2017-07-25T11:11:47.416Z,94.20
2017-07-25T11:14:15.677Z,96.70
2017-07-25T11:16:43.928Z,97.90
2017-07-25T11:19:12.216Z,99.00
2017-07-25T11:21:40.467Z,99.90
2017-07-25T11:24:08.774Z,99.90
2017-07-25T11:26:37.040Z,99.90
2017-07-25T11:29:05.295Z,99.90
2017-07-25T11:31:33.593Z,99.90
2017-07-25T11:34:01.852Z,99.90
2017-07-25T11:36:30.110Z,99.90
2017-07-25T11:38:58.402Z,99.90
2017-07-25T11:41:26.978Z,99.90
2017-07-25T11:43:55.292Z,99.90
2017-07-25T11:46:23.577Z,99.90
2017-07-25T11:48:51.082Z,99.90
2017-07-25T11:51:19.413Z,99.90
2017-07-25T11:53:47.688Z,99.90
2017-07-25T11:56:15.939Z,99.90
2017-07-25T11:58:44.209Z,99.90
2017-07-25T12:01:12.472Z,99.90
2017-07-25T12:03:40.767Z,99.90
2017-07-25T12:06:09.039Z,99.90
2017-07-25T12:08:37.356Z,99.90
2017-07-25T12:11:05.612Z,99.60
2017-07-25T12:13:33.876Z,99.90
2017-07-25T12:16:02.189Z,99.90
2017-07-25T12:18:30.457Z,99.90
2017-07-25T12:21:20.504Z,99.90
2017-07-25T12:23:48.760Z,99.90
2017-07-25T12:26:17.892Z,99.90
2017-07-25T12:28:46.157Z,99.90
2017-07-25T12:31:14.425Z,99.90
2017-07-25T12:33:42.748Z,99.90
2017-07-25T12:36:11.008Z,99.90
2017-07-25T12:38:39.261Z,99.90
2017-07-25T12:41:07.552Z,99.90
2017-07-25T12:43:35.861Z,99.90
2017-07-25T12:46:04.122Z,99.90
2017-07-25T12:48:32.381Z,99.90
2017-07-25T12:51:00.682Z,99.90
2017-07-25T12:53:28.938Z,99.90
2017-07-25T12:55:57.252Z,99.90
2017-07-25T12:58:25.513Z,99.90
2017-07-25T13:01:05.614Z,99.90
2017-07-25T13:03:33.872Z,99.90
2017-07-25T13:06:02.127Z,99.90
2017-07-25T13:08:30.406Z,99.90
2017-07-25T13:10:58.676Z,99.90
2017-07-25T13:13:26.995Z,99.90
2017-07-25T13:15:55.242Z,99.90
2017-07-25T13:18:23.499Z,99.90
2017-07-25T13:20:51.819Z,99.90
2017-07-25T13:23:20.088Z,99.90
2017-07-25T13:25:48.358Z,99.90
2017-07-25T13:28:16.696Z,99.90
2017-07-25T13:30:44.970Z,99.90
2017-07-25T13:33:13.228Z,99.90
2017-07-25T13:35:41.558Z,99.90
2017-07-25T13:38:09.054Z,99.90
2017-07-25T13:40:37.315Z,99.90
2017-07-25T13:43:05.621Z,99.90
2017-07-25T13:45:33.946Z,99.90
2017-07-25T13:48:02.209Z,99.90
2017-07-25T13:50:30.468Z,99.90
2017-07-25T13:52:58.791Z,99.90
2017-07-25T13:55:27.055Z,99.90
2017-07-25T13:57:55.329Z,99.90
2017-07-25T14:00:23.616Z,99.90
2017-07-25T14:02:51.916Z,99.90
2017-07-25T14:05:20.200Z,99.90
2017-07-25T14:07:48.471Z,99.90
2017-07-25T14:10:16.763Z,99.90
2017-07-25T14:12:45.032Z,99.90
2017-07-25T14:15:13.332Z,99.90
2017-07-25T14:17:41.604Z,99.90
2017-07-25T14:20:09.895Z,99.90
2017-07-25T14:22:38.156Z,99.90
2017-07-25T14:25:06.465Z,99.90
2017-07-25T14:27:34.731Z,99.90
2017-07-25T14:30:03.008Z,99.90
2017-07-25T14:32:31.310Z,99.90
2017-07-25T14:34:59.608Z,99.90
2017-07-25T14:37:27.897Z,99.90
2017-07-25T14:39:56.164Z,99.90
2017-07-25T14:42:24.463Z,99.90
2017-07-25T14:44:52.734Z,99.90
2017-07-25T14:47:21.043Z,99.90
2017-07-25T14:49:49.304Z,99.90
2017-07-25T14:52:17.580Z,99.90
2017-07-25T14:54:45.892Z,99.90
2017-07-25T14:57:14.174Z,99.90
2017-07-25T14:59:42.448Z,99.90
2017-07-25T15:02:10.784Z,99.90
2017-07-25T15:04:39.084Z,99.90
2017-07-25T15:07:07.343Z,99.90
2017-07-25T15:09:35.652Z,99.90
2017-07-25T15:12:03.918Z,99.90
2017-07-25T15:14:32.185Z,99.90
2017-07-25T15:17:00.494Z,99.90
2017-07-25T15:19:28.758Z,99.90
2017-07-25T15:21:57.024Z,99.90
2017-07-25T15:24:25.344Z,99.90
2017-07-25T15:26:53.610Z,99.90
2017-07-25T15:29:21.876Z,99.90
2017-07-25T15:31:50.184Z,99.90
2017-07-25T15:34:18.440Z,99.90
2017-07-25T15:36:46.700Z,99.90
2017-07-25T15:39:15.003Z,99.90
2017-07-25T15:41:43.263Z,99.90
2017-07-25T15:44:11.523Z,99.90
2017-07-25T15:46:39.835Z,99.90
2017-07-25T15:49:08.093Z,99.90
2017-07-25T15:51:36.363Z,99.90
2017-07-25T15:54:04.668Z,99.90
2017-07-25T15:56:32.925Z,99.90
2017-07-25T15:59:01.197Z,99.90
2017-07-25T16:01:29.505Z,99.90
2017-07-25T16:03:57.768Z,99.90
2017-07-25T16:06:26.021Z,99.90
2017-07-25T16:08:54.361Z,99.90
2017-07-25T16:11:22.603Z,99.90
2017-07-25T16:13:50.909Z,99.90
2017-07-25T16:16:18.397Z,99.90
2017-07-25T16:18:46.666Z,99.90
2017-07-25T16:21:14.976Z,99.90
2017-07-25T16:23:43.235Z,99.90
2017-07-25T16:26:11.496Z,99.90
2017-07-25T16:28:39.805Z,99.90
2017-07-25T16:31:08.065Z,99.90
2017-07-25T16:33:36.326Z,99.90
2017-07-25T16:36:04.619Z,99.90
2017-07-25T16:38:32.885Z,99.90
2017-07-25T16:41:01.151Z,99.90
2017-07-25T16:43:29.449Z,99.90
2017-07-25T16:45:57.754Z,99.90
2017-07-25T16:48:26.016Z,99.90
2017-07-25T16:50:54.271Z,99.90
2017-07-25T16:53:22.556Z,99.90
2017-07-25T16:55:50.877Z,99.90
2017-07-25T16:58:19.134Z,99.90
2017-07-25T17:00:47.388Z,99.90
2017-07-25T17:03:15.687Z,99.90
2017-07-25T17:05:43.966Z,99.90
2017-07-25T17:08:12.251Z,99.90
2017-07-25T17:10:40.543Z,99.90
2017-07-25T17:13:08.800Z,99.90
2017-07-25T17:15:37.063Z,99.90
2017-07-25T17:18:05.370Z,99.90
2017-07-25T17:20:33.633Z,99.90
2017-07-25T17:23:01.901Z,99.90
2017-07-25T17:25:30.202Z,99.90
2017-07-25T17:27:58.464Z,99.90
2017-07-25T17:30:26.721Z,99.90
2017-07-25T17:32:55.045Z,99.90
2017-07-25T17:35:23.299Z,99.90
2017-07-25T17:37:51.550Z,99.90
2017-07-25T17:40:19.853Z,99.90
2017-07-25T17:42:48.112Z,99.90
2017-07-25T17:45:16.376Z,99.90
2017-07-25T17:47:44.681Z,99.90
2017-07-25T17:50:12.975Z,99.90
2017-07-25T17:52:41.240Z,99.90
2017-07-25T17:55:09.544Z,99.90
2017-07-25T17:57:37.803Z,99.90
2017-07-25T18:00:06.052Z,99.90
2017-07-25T18:02:34.335Z,99.90
2017-07-25T18:05:02.628Z,99.90
2017-07-25T18:07:30.894Z,99.90
2017-07-25T18:09:59.143Z,99.90
2017-07-25T18:12:27.440Z,99.90
2017-07-25T18:14:55.690Z,99.90
2017-07-25T18:17:23.953Z,99.90
2017-07-25T18:19:51.480Z,99.90
2017-07-25T18:22:19.743Z,99.90
2017-07-25T18:24:47.997Z,99.90
2017-07-25T18:27:16.294Z,99.90
2017-07-25T18:29:44.546Z,99.90
2017-07-25T18:32:12.810Z,99.90
2017-07-25T18:34:41.096Z,99.90
2017-07-25T18:37:09.364Z,99.90
2017-07-25T18:39:37.638Z,99.90
2017-07-25T18:42:05.937Z,99.90
2017-07-25T18:44:34.208Z,99.90
2017-07-25T18:47:02.463Z,99.90
2017-07-25T18:49:30.759Z,99.90
2017-07-25T18:51:59.050Z,99.90
2017-07-25T18:54:27.305Z,99.90
2017-07-25T18:56:55.614Z,99.90
2017-07-25T18:59:23.094Z,99.90
2017-07-25T19:01:51.351Z,99.90
2017-07-25T19:04:19.668Z,99.90
2017-07-25T19:06:47.944Z,99.90
2017-07-25T19:09:16.198Z,99.90
2017-07-25T19:11:44.484Z,99.90
2017-07-25T19:14:12.799Z,99.90
2017-07-25T19:16:41.063Z,99.90
2017-07-25T19:19:09.328Z,99.90
2017-07-25T19:21:37.617Z,99.90
2017-07-25T19:24:05.884Z,99.90
2017-07-25T19:26:34.197Z,99.90
2017-07-25T19:29:02.451Z,99.90
2017-07-25T19:31:30.719Z,99.90
2017-07-25T19:33:58.997Z,99.90
2017-07-25T19:36:27.251Z,99.90
2017-07-25T19:38:55.541Z,99.90
2017-07-25T19:41:23.809Z,99.90
2017-07-25T19:43:52.101Z,99.90
2017-07-25T19:46:20.402Z,99.90
2017-07-25T19:48:48.706Z,99.90
2017-07-25T19:51:16.980Z,99.90
2017-07-25T19:53:45.248Z,99.90
2017-07-25T19:56:13.636Z,99.90
2017-07-25T19:58:41.888Z,99.90
2017-07-25T20:01:10.152Z,99.90
2017-07-25T20:03:38.449Z,99.90
2017-07-25T20:06:06.704Z,99.90
2017-07-25T20:08:34.958Z,99.90
2017-07-25T20:11:03.255Z,99.90
2017-07-25T20:13:31.544Z,99.90
2017-07-25T20:15:59.817Z,99.90
2017-07-25T20:18:28.095Z,99.90
2017-07-25T20:20:56.390Z,99.90
2017-07-25T20:23:24.646Z,99.90
2017-07-25T20:25:52.902Z,99.90
2017-07-25T20:28:21.197Z,99.90
2017-07-25T20:30:49.455Z,99.90
2017-07-25T20:33:17.779Z,99.90
2017-07-25T20:35:46.023Z,99.90
2017-07-25T20:38:14.279Z,99.90
2017-07-25T20:40:42.562Z,99.90
2017-07-25T20:43:10.820Z,99.90
2017-07-25T20:45:39.151Z,99.90
2017-07-25T20:48:07.411Z,99.90
2017-07-25T20:50:35.666Z,99.90
2017-07-25T20:53:03.987Z,99.90
2017-07-25T20:55:32.244Z,99.90
2017-07-25T20:58:00.518Z,99.90
2017-07-25T21:00:28.799Z,99.90
2017-07-25T21:02:57.060Z,99.90
2017-07-25T21:05:25.338Z,99.90
2017-07-25T21:07:53.638Z,99.90
2017-07-25T21:10:21.915Z,99.90
2017-07-25T21:12:50.191Z,99.90
2017-07-25T21:15:18.484Z,99.90
2017-07-25T21:17:46.747Z,99.90
2017-07-25T21:20:15.009Z,99.90
2017-07-25T21:22:43.288Z,99.90
2017-07-25T21:25:11.555Z,99.90
2017-07-25T21:27:39.861Z,99.90
2017-07-25T21:30:07.347Z,99.90
2017-07-25T21:32:35.625Z,99.90
2017-07-25T21:35:03.926Z,99.90
2017-07-25T21:37:32.189Z,99.90
2017-07-25T21:40:00.451Z,99.90
2017-07-25T21:42:28.751Z,99.90
2017-07-25T21:44:57.017Z,99.90
2017-07-25T21:47:25.299Z,99.90
2017-07-25T21:49:53.591Z,99.90
2017-07-25T21:52:21.844Z,99.90
2017-07-25T21:54:50.117Z,99.90
2017-07-25T21:57:18.414Z,99.90
2017-07-25T21:59:46.671Z,99.90
2017-07-25T22:02:35.606Z,99.90
2017-07-25T22:05:03.914Z,99.90
2017-07-25T22:07:32.180Z,99.90
2017-07-25T22:10:00.451Z,99.90
2017-07-25T22:12:28.767Z,99.90
2017-07-25T22:14:57.032Z,99.90
2017-07-25T22:17:25.300Z,99.90
2017-07-25T22:19:53.641Z,99.90
2017-07-25T22:22:21.898Z,99.90
2017-07-25T22:24:50.156Z,99.90
2017-07-25T22:27:18.441Z,99.90
2017-07-25T22:29:46.700Z,99.90
2017-07-25T22:32:14.984Z,99.90
2017-07-25T22:34:43.251Z,99.90
2017-07-25T22:37:11.548Z,99.90
2017-07-25T22:39:39.803Z,99.90
2017-07-25T22:42:08.089Z,99.90
2017-07-25T22:44:36.396Z,99.90
2017-07-25T22:47:04.662Z,99.90
2017-07-25T22:49:32.929Z,99.90
2017-07-25T22:52:01.275Z,99.90
2017-07-25T22:54:29.539Z,99.90
2017-07-25T22:56:57.818Z,99.90
2017-07-25T22:59:26.137Z,99.90
2017-07-25T23:01:54.413Z,99.90
2017-07-25T23:04:22.687Z,99.90
2017-07-25T23:06:51.003Z,99.90
2017-07-25T23:09:19.263Z,99.90
2017-07-25T23:11:47.538Z,99.90
2017-07-25T23:14:15.847Z,99.90
2017-07-25T23:16:44.113Z,99.90
2017-07-25T23:19:12.380Z,99.90
2017-07-25T23:21:40.679Z,99.90
2017-07-25T23:24:08.935Z,99.90
2017-07-25T23:26:36.435Z,99.90
2017-07-25T23:29:04.708Z,99.90
2017-07-25T23:31:32.975Z,99.90
2017-07-25T23:34:01.271Z,99.90
2017-07-25T23:36:29.542Z,99.90
2017-07-25T23:38:57.815Z,99.90
2017-07-25T23:41:26.121Z,99.90
2017-07-25T23:43:54.380Z,99.90
2017-07-25T23:46:22.654Z,99.90
2017-07-25T23:48:51.904Z,99.90
2017-07-25T23:51:20.239Z,99.90
2017-07-25T23:53:48.514Z,99.90
2017-07-25T23:56:16.782Z,99.90
2017-07-25T23:58:45.083Z,99.90
